aviador You're here:

KDHN Decoded Metar

DOTHAN in AL, USA
Report Time2018-06-17 23:40:00
UTC Time2018-06-17 23:46:52
Flight Rules vfr VFR
Wind020° at 04 kt
W.Decomp.*RWY 36: 3.7 kt HW 1.6 kt RCW
RWY 32: 1.8 kt HW 3.6 kt RCW
W.Rank020° ranks 24
Current wind is below 020° avg. (5.6)
Visibility9999 m
Phenomena:N/A
Clouds:N/A
Expected CloudBase > 2,800 ft AGL from Temp-Dew spread
CeilingNone
Temp28°C (ISA +14)
Dew Point21°C (66% RH)
Heat Index30.2°C
QNH1021 hPa
Density Alt2,011 ft
Elevation371 ft
Report Wrong Elevation
Raw Report
KDHN 172340Z 02004KT 10SM CLR 28/21 A3015 RMK AO2 LTG DSNT SE
TSB21E36 T02830206=

Extra information for KDHN:More info

Metar Taf Metar & Taf Last 4 Metars F.Rules Stats Wind Profile Meteogram Temp Stats Airport Information Weather charts Add Link Nearby VenuesMetar ALERT Operation Metar Decoded Social comments

AIRNAV info for KDHN